sensor_id;sensor_type;location;lat;lon;timestamp;pressure;altitude;pressure_sealevel;temperature;humidity
9740;BME280;4909;42.680;26.324;2022-11-14T00:02:23;99750.19;;;10.19;94.02
9740;BME280;4909;42.680;26.324;2022-11-14T00:04:51;99748.94;;;10.32;94.15
9740;BME280;4909;42.680;26.324;2022-11-14T00:07:17;99755.00;;;10.39;93.61
9740;BME280;4909;42.680;26.324;2022-11-14T00:09:44;99754.97;;;10.40;93.53
9740;BME280;4909;42.680;26.324;2022-11-14T00:12:11;99746.41;;;10.29;94.04
9740;BME280;4909;42.680;26.324;2022-11-14T00:14:38;99739.44;;;10.25;94.31
9740;BME280;4909;42.680;26.324;2022-11-14T00:17:05;99746.28;;;10.34;94.24
9740;BME280;4909;42.680;26.324;2022-11-14T00:19:31;99754.78;;;10.46;93.40
9740;BME280;4909;42.680;26.324;2022-11-14T00:21:59;99752.84;;;10.53;93.18
9740;BME280;4909;42.680;26.324;2022-11-14T00:24:26;99751.94;;;10.54;92.71
9740;BME280;4909;42.680;26.324;2022-11-14T00:26:53;99750.97;;;10.57;92.32
9740;BME280;4909;42.680;26.324;2022-11-14T00:29:20;99753.06;;;10.45;92.91
9740;BME280;4909;42.680;26.324;2022-11-14T00:31:46;99740.72;;;10.43;93.43
9740;BME280;4909;42.680;26.324;2022-11-14T00:34:13;99742.31;;;10.50;92.94
9740;BME280;4909;42.680;26.324;2022-11-14T00:36:40;99740.34;;;10.57;92.51
9740;BME280;4909;42.680;26.324;2022-11-14T00:39:11;99737.63;;;10.60;91.36
9740;BME280;4909;42.680;26.324;2022-11-14T00:41:37;99737.00;;;10.50;91.22
9740;BME280;4909;42.680;26.324;2022-11-14T00:44:04;99739.84;;;10.42;91.24
9740;BME280;4909;42.680;26.324;2022-11-14T00:46:31;99732.53;;;10.51;90.58
9740;BME280;4909;42.680;26.324;2022-11-14T00:48:58;99739.84;;;10.42;90.78
9740;BME280;4909;42.680;26.324;2022-11-14T00:51:24;99728.47;;;10.37;90.54
9740;BME280;4909;42.680;26.324;2022-11-14T00:53:51;99724.88;;;10.40;90.71
9740;BME280;4909;42.680;26.324;2022-11-14T00:56:19;99729.50;;;10.32;90.62
9740;BME280;4909;42.680;26.324;2022-11-14T00:58:46;99728.53;;;10.36;91.17
9740;BME280;4909;42.680;26.324;2022-11-14T01:01:13;99722.13;;;10.43;90.33
9740;BME280;4909;42.680;26.324;2022-11-14T01:03:40;99714.97;;;10.46;90.01
9740;BME280;4909;42.680;26.324;2022-11-14T01:06:09;99724.91;;;10.38;90.10
9740;BME280;4909;42.680;26.324;2022-11-14T01:08:38;99723.03;;;10.42;90.38
9740;BME280;4909;42.680;26.324;2022-11-14T01:11:08;99718.63;;;10.41;90.36
9740;BME280;4909;42.680;26.324;2022-11-14T01:13:37;99710.94;;;10.32;90.57
9740;BME280;4909;42.680;26.324;2022-11-14T01:16:05;99713.69;;;10.27;90.73
9740;BME280;4909;42.680;26.324;2022-11-14T01:18:32;99714.47;;;10.32;90.45
9740;BME280;4909;42.680;26.324;2022-11-14T01:21:02;99706.75;;;10.23;90.82
9740;BME280;4909;42.680;26.324;2022-11-14T01:23:29;99706.03;;;10.17;91.22
9740;BME280;4909;42.680;26.324;2022-11-14T01:26:00;99700.75;;;10.15;91.35
9740;BME280;4909;42.680;26.324;2022-11-14T01:28:27;99700.22;;;10.01;92.02
9740;BME280;4909;42.680;26.324;2022-11-14T01:30:55;99696.69;;;10.00;92.43
9740;BME280;4909;42.680;26.324;2022-11-14T01:33:22;99701.78;;;10.08;91.73
9740;BME280;4909;42.680;26.324;2022-11-14T01:35:49;99701.03;;;10.03;91.62
9740;BME280;4909;42.680;26.324;2022-11-14T01:38:15;99700.47;;;9.92;91.63
9740;BME280;4909;42.680;26.324;2022-11-14T01:40:43;99694.84;;;10.02;91.85
9740;BME280;4909;42.680;26.324;2022-11-14T01:43:23;99692.75;;;10.17;91.15
9740;BME280;4909;42.680;26.324;2022-11-14T01:45:53;99698.91;;;10.19;91.26
9740;BME280;4909;42.680;26.324;2022-11-14T01:48:26;99697.09;;;10.21;91.51
9740;BME280;4909;42.680;26.324;2022-11-14T01:50:56;99693.31;;;10.29;91.48
9740;BME280;4909;42.680;26.324;2022-11-14T01:53:24;99693.16;;;10.35;91.10
9740;BME280;4909;42.680;26.324;2022-11-14T01:55:52;99695.06;;;10.30;91.14
9740;BME280;4909;42.680;26.324;2022-11-14T01:58:21;99695.81;;;10.35;90.27
9740;BME280;4909;42.680;26.324;2022-11-14T02:00:48;99693.03;;;10.40;90.26
9740;BME280;4909;42.680;26.324;2022-11-14T02:03:16;99695.97;;;10.29;89.98
9740;BME280;4909;42.680;26.324;2022-11-14T02:05:45;99695.22;;;10.24;89.71
9740;BME280;4909;42.680;26.324;2022-11-14T02:08:14;99685.59;;;10.20;89.76
9740;BME280;4909;42.680;26.324;2022-11-14T02:10:41;99687.06;;;9.96;90.59
9740;BME280;4909;42.680;26.324;2022-11-14T02:13:08;99682.91;;;9.86;91.59
9740;BME280;4909;42.680;26.324;2022-11-14T02:15:35;99677.25;;;10.00;91.30
9740;BME280;4909;42.680;26.324;2022-11-14T02:18:02;99676.94;;;10.12;90.59
9740;BME280;4909;42.680;26.324;2022-11-14T02:20:35;99670.09;;;10.03;90.71
9740;BME280;4909;42.680;26.324;2022-11-14T02:23:02;99678.91;;;10.04;90.74
9740;BME280;4909;42.680;26.324;2022-11-14T02:25:29;99677.00;;;10.09;90.51
9740;BME280;4909;42.680;26.324;2022-11-14T02:27:57;99676.38;;;9.99;90.79
9740;BME280;4909;42.680;26.324;2022-11-14T02:30:25;99675.13;;;10.14;90.55
9740;BME280;4909;42.680;26.324;2022-11-14T02:32:52;99592.41;;;9.66;90.49
9740;BME280;4909;42.680;26.324;2022-11-14T02:35:19;99680.66;;;10.05;91.13
9740;BME280;4909;42.680;26.324;2022-11-14T02:37:47;99679.00;;;10.01;91.51
9740;BME280;4909;42.680;26.324;2022-11-14T02:40:13;99676.47;;;9.96;91.77
9740;BME280;4909;42.680;26.324;2022-11-14T02:42:40;99681.94;;;9.89;91.81
9740;BME280;4909;42.680;26.324;2022-11-14T02:45:08;99684.47;;;9.95;91.80
9740;BME280;4909;42.680;26.324;2022-11-14T02:47:36;99646.94;;;9.76;91.63
9740;BME280;4909;42.680;26.324;2022-11-14T02:50:03;99680.19;;;9.88;91.81
9740;BME280;4909;42.680;26.324;2022-11-14T02:52:30;99673.44;;;9.76;92.66
9740;BME280;4909;42.680;26.324;2022-11-14T02:54:58;99677.13;;;9.69;93.36
9740;BME280;4909;42.680;26.324;2022-11-14T02:57:24;99674.34;;;9.75;93.22
9740;BME280;4909;42.680;26.324;2022-11-14T02:59:51;99677.63;;;9.85;92.96
9740;BME280;4909;42.680;26.324;2022-11-14T03:02:18;99684.31;;;10.01;91.80
9740;BME280;4909;42.680;26.324;2022-11-14T03:04:45;99675.50;;;9.99;91.90
9740;BME280;4909;42.680;26.324;2022-11-14T03:07:11;99677.25;;;10.00;91.73
9740;BME280;4909;42.680;26.324;2022-11-14T03:09:38;99678.09;;;10.02;91.16
9740;BME280;4909;42.680;26.324;2022-11-14T03:12:06;99677.03;;;10.08;90.48
9740;BME280;4909;42.680;26.324;2022-11-14T03:14:33;99690.50;;;10.01;90.22
9740;BME280;4909;42.680;26.324;2022-11-14T03:17:00;99685.47;;;9.89;90.84
9740;BME280;4909;42.680;26.324;2022-11-14T03:19:27;99692.53;;;9.90;90.51
9740;BME280;4909;42.680;26.324;2022-11-14T03:21:54;99687.09;;;9.95;90.55
9740;BME280;4909;42.680;26.324;2022-11-14T03:24:20;99685.50;;;9.88;90.41
9740;BME280;4909;42.680;26.324;2022-11-14T03:26:47;99680.50;;;9.77;90.79
9740;BME280;4909;42.680;26.324;2022-11-14T03:29:15;99691.81;;;9.84;90.96
9740;BME280;4909;42.680;26.324;2022-11-14T03:31:42;99684.72;;;9.84;90.40
9740;BME280;4909;42.680;26.324;2022-11-14T03:34:09;99683.72;;;9.88;90.13
9740;BME280;4909;42.680;26.324;2022-11-14T03:36:36;99683.09;;;9.79;89.93
9740;BME280;4909;42.680;26.324;2022-11-14T03:39:04;99672.59;;;9.74;90.17
9740;BME280;4909;42.680;26.324;2022-11-14T03:41:31;99673.81;;;9.61;90.89
9740;BME280;4909;42.680;26.324;2022-11-14T03:43:58;99667.50;;;9.67;90.89
9740;BME280;4909;42.680;26.324;2022-11-14T03:46:26;99667.47;;;9.68;91.04
9740;BME280;4909;42.680;26.324;2022-11-14T03:48:53;99672.66;;;9.73;90.52
9740;BME280;4909;42.680;26.324;2022-11-14T03:51:20;99672.84;;;9.64;91.49
9740;BME280;4909;42.680;26.324;2022-11-14T03:53:46;99665.63;;;9.70;91.51
9740;BME280;4909;42.680;26.324;2022-11-14T03:56:13;99664.88;;;9.65;91.62
9740;BME280;4909;42.680;26.324;2022-11-14T03:58:40;99666.13;;;9.49;92.70
9740;BME280;4909;42.680;26.324;2022-11-14T04:01:07;99670.28;;;9.60;92.45
9740;BME280;4909;42.680;26.324;2022-11-14T04:03:35;99678.00;;;9.70;91.80
9740;BME280;4909;42.680;26.324;2022-11-14T04:06:02;99670.03;;;9.71;91.57
9740;BME280;4909;42.680;26.324;2022-11-14T04:08:29;99669.16;;;9.71;91.89
9740;BME280;4909;42.680;26.324;2022-11-14T04:10:55;99665.53;;;9.73;91.24
9740;BME280;4909;42.680;26.324;2022-11-14T04:13:22;99671.72;;;9.74;91.40
9740;BME280;4909;42.680;26.324;2022-11-14T04:15:54;99674.66;;;9.63;91.91
9740;BME280;4909;42.680;26.324;2022-11-14T04:18:21;99669.25;;;9.68;91.70
9740;BME280;4909;42.680;26.324;2022-11-14T04:20:49;99672.81;;;9.65;91.89
9740;BME280;4909;42.680;26.324;2022-11-14T04:23:16;99667.50;;;9.67;91.56
9740;BME280;4909;42.680;26.324;2022-11-14T04:25:44;99666.75;;;9.60;92.13
9740;BME280;4909;42.680;26.324;2022-11-14T04:28:12;99667.66;;;9.59;92.65
9740;BME280;4909;42.680;26.324;2022-11-14T04:30:39;99669.38;;;9.62;92.68
9740;BME280;4909;42.680;26.324;2022-11-14T04:33:06;99666.75;;;9.60;92.23
9740;BME280;4909;42.680;26.324;2022-11-14T04:35:33;99671.31;;;9.55;92.80
9740;BME280;4909;42.680;26.324;2022-11-14T04:38:01;99668.50;;;9.61;92.13
9740;BME280;4909;42.680;26.324;2022-11-14T04:40:28;99673.94;;;9.55;92.38
9740;BME280;4909;42.680;26.324;2022-11-14T04:42:55;99671.53;;;9.46;92.66
9740;BME280;4909;42.680;26.324;2022-11-14T04:45:22;99670.25;;;9.62;92.16
9740;BME280;4909;42.680;26.324;2022-11-14T04:47:49;99668.06;;;9.44;92.84
9740;BME280;4909;42.680;26.324;2022-11-14T04:50:16;99676.72;;;9.50;92.78
9740;BME280;4909;42.680;26.324;2022-11-14T04:52:42;99678.94;;;9.32;93.71
9740;BME280;4909;42.680;26.324;2022-11-14T04:55:10;99677.16;;;9.32;93.85
9740;BME280;4909;42.680;26.324;2022-11-14T04:57:37;99682.34;;;9.37;93.78
9740;BME280;4909;42.680;26.324;2022-11-14T05:00:05;99678.69;;;9.42;93.44
9740;BME280;4909;42.680;26.324;2022-11-14T05:02:32;99677.88;;;9.39;93.72
9740;BME280;4909;42.680;26.324;2022-11-14T05:04:59;99683.03;;;9.45;93.05
9740;BME280;4909;42.680;26.324;2022-11-14T05:07:26;99682.22;;;9.41;93.04
9740;BME280;4909;42.680;26.324;2022-11-14T05:09:52;99686.03;;;9.30;94.32
9740;BME280;4909;42.680;26.324;2022-11-14T05:12:20;99676.41;;;9.26;94.71
9740;BME280;4909;42.680;26.324;2022-11-14T05:14:47;99675.59;;;9.24;95.36
9740;BME280;4909;42.680;26.324;2022-11-14T05:17:14;99678.16;;;9.27;94.92
9740;BME280;4909;42.680;26.324;2022-11-14T05:19:41;99670.88;;;9.36;94.42
9740;BME280;4909;42.680;26.324;2022-11-14T05:22:07;99677.81;;;9.42;94.03
9740;BME280;4909;42.680;26.324;2022-11-14T05:24:34;99683.75;;;9.53;93.44
9740;BME280;4909;42.680;26.324;2022-11-14T05:27:01;99681.78;;;9.59;92.88
9740;BME280;4909;42.680;26.324;2022-11-14T05:29:29;99682.66;;;9.60;92.74
9740;BME280;4909;42.680;26.324;2022-11-14T05:31:56;99690.44;;;9.68;93.04
9740;BME280;4909;42.680;26.324;2022-11-14T05:34:23;99680.00;;;9.60;92.21
9740;BME280;4909;42.680;26.324;2022-11-14T05:36:50;99691.50;;;9.60;92.90
9740;BME280;4909;42.680;26.324;2022-11-14T05:39:17;99698.22;;;9.74;92.65
9740;BME280;4909;42.680;26.324;2022-11-14T05:41:44;99699.97;;;9.75;92.31
9740;BME280;4909;42.680;26.324;2022-11-14T05:44:11;99698.75;;;9.89;91.98
9740;BME280;4909;42.680;26.324;2022-11-14T05:46:39;99704.16;;;9.85;91.92
9740;BME280;4909;42.680;26.324;2022-11-14T05:49:05;99696.84;;;9.94;92.03
9740;BME280;4909;42.680;26.324;2022-11-14T05:51:32;99703.00;;;9.96;91.82
9740;BME280;4909;42.680;26.324;2022-11-14T05:53:59;99705.34;;;10.07;91.80
9740;BME280;4909;42.680;26.324;2022-11-14T05:56:26;99697.44;;;10.06;91.79
9740;BME280;4909;42.680;26.324;2022-11-14T05:58:52;99703.44;;;10.12;91.88
9740;BME280;4909;42.680;26.324;2022-11-14T06:01:20;99699.56;;;10.27;91.83
9740;BME280;4909;42.680;26.324;2022-11-14T06:03:48;99700.72;;;10.17;92.45
9740;BME280;4909;42.680;26.324;2022-11-14T06:06:17;99706.75;;;10.23;92.10
9740;BME280;4909;42.680;26.324;2022-11-14T06:08:45;99703.09;;;10.27;91.64
9740;BME280;4909;42.680;26.324;2022-11-14T06:11:13;99703.47;;;10.46;90.81
9740;BME280;4909;42.680;26.324;2022-11-14T06:13:40;99702.41;;;10.53;90.11
9740;BME280;4909;42.680;26.324;2022-11-14T06:16:09;99693.16;;;10.68;89.70
9740;BME280;4909;42.680;26.324;2022-11-14T06:18:37;99675.56;;;10.64;89.26
9740;BME280;4909;42.680;26.324;2022-11-14T06:21:08;99698.59;;;10.63;89.53
9740;BME280;4909;42.680;26.324;2022-11-14T06:23:35;99700.22;;;10.69;90.17
9740;BME280;4909;42.680;26.324;2022-11-14T06:26:04;99698.50;;;10.97;88.35
9740;BME280;4909;42.680;26.324;2022-11-14T06:28:31;99699.91;;;11.09;87.52
9740;BME280;4909;42.680;26.324;2022-11-14T06:30:59;99698.97;;;11.11;87.29
9740;BME280;4909;42.680;26.324;2022-11-14T06:33:26;99697.78;;;11.21;86.94
9740;BME280;4909;42.680;26.324;2022-11-14T06:35:56;99705.06;;;11.43;86.32
9740;BME280;4909;42.680;26.324;2022-11-14T06:38:25;99705.44;;;11.60;85.05
9740;BME280;4909;42.680;26.324;2022-11-14T06:40:52;99709.72;;;11.64;84.87
9740;BME280;4909;42.680;26.324;2022-11-14T06:43:18;99706.81;;;11.71;84.85
9740;BME280;4909;42.680;26.324;2022-11-14T06:45:45;99704.00;;;11.77;84.57
9740;BME280;4909;42.680;26.324;2022-11-14T06:48:12;99708.69;;;11.96;84.45
9740;BME280;4909;42.680;26.324;2022-11-14T06:50:39;99716.41;;;12.05;84.15
9740;BME280;4909;42.680;26.324;2022-11-14T06:53:05;99712.97;;;12.28;82.66
9740;BME280;4909;42.680;26.324;2022-11-14T06:55:33;99711.88;;;12.33;82.91
9740;BME280;4909;42.680;26.324;2022-11-14T06:58:00;99708.28;;;12.59;81.38
9740;BME280;4909;42.680;26.324;2022-11-14T07:00:27;99701.53;;;12.74;80.41
9740;BME280;4909;42.680;26.324;2022-11-14T07:02:54;99702.38;;;12.76;80.13
9740;BME280;4909;42.680;26.324;2022-11-14T07:05:20;99707.94;;;12.93;79.75
9740;BME280;4909;42.680;26.324;2022-11-14T07:07:47;99698.81;;;13.00;79.03
9740;BME280;4909;42.680;26.324;2022-11-14T07:10:14;99711.97;;;13.28;78.52
9740;BME280;4909;42.680;26.324;2022-11-14T07:12:42;99707.25;;;13.58;77.43
9740;BME280;4909;42.680;26.324;2022-11-14T07:15:09;99714.66;;;13.73;76.90
9740;BME280;4909;42.680;26.324;2022-11-14T07:17:36;99711.47;;;14.07;75.92
9740;BME280;4909;42.680;26.324;2022-11-14T07:20:03;99712.56;;;14.45;74.04
9740;BME280;4909;42.680;26.324;2022-11-14T07:22:30;99713.06;;;14.93;72.45
9740;BME280;4909;42.680;26.324;2022-11-14T07:24:57;99708.56;;;15.33;70.25
9740;BME280;4909;42.680;26.324;2022-11-14T07:27:24;99706.34;;;15.61;69.29
9740;BME280;4909;42.680;26.324;2022-11-14T07:29:52;99717.09;;;15.78;68.24
9740;BME280;4909;42.680;26.324;2022-11-14T07:32:19;99712.69;;;16.13;67.00
9740;BME280;4909;42.680;26.324;2022-11-14T07:34:45;99713.19;;;16.21;66.17
9740;BME280;4909;42.680;26.324;2022-11-14T07:37:12;99713.34;;;16.52;65.28
9740;BME280;4909;42.680;26.324;2022-11-14T07:39:39;99707.16;;;16.69;64.33
9740;BME280;4909;42.680;26.324;2022-11-14T07:42:05;99704.31;;;16.72;64.16
9740;BME280;4909;42.680;26.324;2022-11-14T07:44:32;99702.75;;;16.68;64.37
9740;BME280;4909;42.680;26.324;2022-11-14T07:47:00;99705.88;;;16.76;64.33
9740;BME280;4909;42.680;26.324;2022-11-14T07:49:27;99703.56;;;17.03;63.64
9740;BME280;4909;42.680;26.324;2022-11-14T07:51:54;99705.34;;;17.35;62.41
9740;BME280;4909;42.680;26.324;2022-11-14T07:54:21;99715.78;;;17.89;60.57
9740;BME280;4909;42.680;26.324;2022-11-14T07:56:47;99715.09;;;18.76;57.70
9740;BME280;4909;42.680;26.324;2022-11-14T07:59:14;99705.97;;;19.78;53.61
9740;BME280;4909;42.680;26.324;2022-11-14T08:01:41;99706.84;;;19.78;52.57
9740;BME280;4909;42.680;26.324;2022-11-14T08:04:09;99695.06;;;19.52;53.70
9740;BME280;4909;42.680;26.324;2022-11-14T08:06:36;99695.13;;;19.37;54.18
9740;BME280;4909;42.680;26.324;2022-11-14T08:09:03;99697.25;;;19.18;55.04
9740;BME280;4909;42.680;26.324;2022-11-14T08:11:29;99694.97;;;19.12;55.36
9740;BME280;4909;42.680;26.324;2022-11-14T08:14:14;99691.84;;;19.74;54.06
9740;BME280;4909;42.680;26.324;2022-11-14T08:16:41;99703.84;;;20.76;50.78
9740;BME280;4909;42.680;26.324;2022-11-14T08:19:09;99699.72;;;21.59;48.76
9740;BME280;4909;42.680;26.324;2022-11-14T08:21:36;99694.78;;;22.13;47.21
9740;BME280;4909;42.680;26.324;2022-11-14T08:24:03;99696.75;;;23.16;43.75
9740;BME280;4909;42.680;26.324;2022-11-14T08:26:30;99694.53;;;23.21;42.88
9740;BME280;4909;42.680;26.324;2022-11-14T08:28:57;99690.88;;;23.66;41.79
9740;BME280;4909;42.680;26.324;2022-11-14T08:31:24;99683.78;;;24.40;40.24
9740;BME280;4909;42.680;26.324;2022-11-14T08:33:51;99682.69;;;25.05;39.05
9740;BME280;4909;42.680;26.324;2022-11-14T08:36:19;99687.88;;;25.69;36.84
9740;BME280;4909;42.680;26.324;2022-11-14T08:38:46;99692.06;;;25.52;36.83
9740;BME280;4909;42.680;26.324;2022-11-14T08:41:12;99679.19;;;25.44;36.49
9740;BME280;4909;42.680;26.324;2022-11-14T08:43:40;99676.53;;;24.82;37.95
9740;BME280;4909;42.680;26.324;2022-11-14T08:46:06;99683.06;;;23.95;40.48
9740;BME280;4909;42.680;26.324;2022-11-14T08:48:33;99684.31;;;23.35;41.53
9740;BME280;4909;42.680;26.324;2022-11-14T08:51:04;99684.56;;;23.21;42.19
9740;BME280;4909;42.680;26.324;2022-11-14T08:53:33;99680.72;;;23.02;43.71
9740;BME280;4909;42.680;26.324;2022-11-14T08:56:00;99665.19;;;22.70;43.84
9740;BME280;4909;42.680;26.324;2022-11-14T08:58:28;99679.34;;;21.42;47.64
9740;BME280;4909;42.680;26.324;2022-11-14T09:00:59;99670.03;;;20.58;50.94
9740;BME280;4909;42.680;26.324;2022-11-14T09:03:26;99675.34;;;20.97;50.90
9740;BME280;4909;42.680;26.324;2022-11-14T09:05:53;99651.16;;;21.08;49.63
9740;BME280;4909;42.680;26.324;2022-11-14T09:08:19;99662.16;;;21.31;49.35
9740;BME280;4909;42.680;26.324;2022-11-14T09:10:48;99660.88;;;21.36;48.99
9740;BME280;4909;42.680;26.324;2022-11-14T09:13:15;99662.66;;;21.85;47.38
9740;BME280;4909;42.680;26.324;2022-11-14T09:15:42;99660.69;;;21.14;49.15
9740;BME280;4909;42.680;26.324;2022-11-14T09:18:09;99645.47;;;20.23;51.29
9740;BME280;4909;42.680;26.324;2022-11-14T09:20:36;99651.97;;;19.52;54.21
9740;BME280;4909;42.680;26.324;2022-11-14T09:23:03;99636.72;;;18.82;57.16
9740;BME280;4909;42.680;26.324;2022-11-14T09:25:31;99649.09;;;18.41;58.43
9740;BME280;4909;42.680;26.324;2022-11-14T09:28:02;99641.56;;;18.17;59.85
9740;BME280;4909;42.680;26.324;2022-11-14T09:30:29;99641.50;;;18.03;60.48
9740;BME280;4909;42.680;26.324;2022-11-14T09:32:58;99642.31;;;18.05;60.65
9740;BME280;4909;42.680;26.324;2022-11-14T09:35:26;99628.03;;;17.89;61.08
9740;BME280;4909;42.680;26.324;2022-11-14T09:38:00;99610.91;;;17.45;62.01
9740;BME280;4909;42.680;26.324;2022-11-14T09:40:27;99632.53;;;17.26;63.98
9740;BME280;4909;42.680;26.324;2022-11-14T09:43:08;99623.09;;;17.19;64.55
9740;BME280;4909;42.680;26.324;2022-11-14T09:45:42;99621.09;;;17.07;64.73
9740;BME280;4909;42.680;26.324;2022-11-14T09:48:15;99610.56;;;17.04;64.79
9740;BME280;4909;42.680;26.324;2022-11-14T09:50:47;99605.44;;;16.99;64.73
9740;BME280;4909;42.680;26.324;2022-11-14T09:53:21;99599.72;;;17.05;63.80
9740;BME280;4909;42.680;26.324;2022-11-14T09:55:51;99610.19;;;17.10;63.72
9740;BME280;4909;42.680;26.324;2022-11-14T09:58:20;99576.00;;;16.82;64.01
9740;BME280;4909;42.680;26.324;2022-11-14T10:00:50;99593.97;;;16.80;65.27
9740;BME280;4909;42.680;26.324;2022-11-14T10:03:23;99597.25;;;16.69;65.48
9740;BME280;4909;42.680;26.324;2022-11-14T10:06:05;99590.91;;;16.70;65.36
9740;BME280;4909;42.680;26.324;2022-11-14T10:08:43;99587.03;;;16.43;65.89
9740;BME280;4909;42.680;26.324;2022-11-14T10:11:19;99586.69;;;16.49;66.26
9740;BME280;4909;42.680;26.324;2022-11-14T10:14:27;99579.75;;;16.62;65.84
9740;BME280;4909;42.680;26.324;2022-11-14T10:17:04;99572.66;;;16.61;65.47
9740;BME280;4909;42.680;26.324;2022-11-14T10:19:41;99579.88;;;16.76;65.10
9740;BME280;4909;42.680;26.324;2022-11-14T10:22:20;99569.56;;;16.69;65.58
9740;BME280;4909;42.680;26.324;2022-11-14T10:25:06;99568.56;;;16.54;66.22
9740;BME280;4909;42.680;26.324;2022-11-14T10:27:44;99567.91;;;16.66;65.82
9740;BME280;4909;42.680;26.324;2022-11-14T10:30:19;99566.47;;;16.76;64.59
9740;BME280;4909;42.680;26.324;2022-11-14T10:33:07;99563.13;;;16.88;63.77
9740;BME280;4909;42.680;26.324;2022-11-14T10:35:41;99547.28;;;16.84;63.42
9740;BME280;4909;42.680;26.324;2022-11-14T10:38:13;99559.31;;;16.92;63.60
9740;BME280;4909;42.680;26.324;2022-11-14T10:40:45;99556.72;;;16.91;63.82
9740;BME280;4909;42.680;26.324;2022-11-14T10:43:21;99542.25;;;16.78;64.53
9740;BME280;4909;42.680;26.324;2022-11-14T10:45:53;99549.53;;;16.91;64.02
9740;BME280;4909;42.680;26.324;2022-11-14T10:48:28;99545.13;;;16.90;64.32
9740;BME280;4909;42.680;26.324;2022-11-14T10:50:57;99545.97;;;16.91;64.43
9740;BME280;4909;42.680;26.324;2022-11-14T10:53:31;99540.88;;;16.86;64.32
9740;BME280;4909;42.680;26.324;2022-11-14T10:56:00;99535.84;;;16.80;64.25
9740;BME280;4909;42.680;26.324;2022-11-14T10:58:27;99542.44;;;16.90;62.77
9740;BME280;4909;42.680;26.324;2022-11-14T11:00:56;99539.59;;;16.93;62.83
9740;BME280;4909;42.680;26.324;2022-11-14T11:03:43;99526.44;;;16.89;63.30
9740;BME280;4909;42.680;26.324;2022-11-14T11:06:23;99527.66;;;16.99;62.74
9740;BME280;4909;42.680;26.324;2022-11-14T11:08:50;99527.47;;;17.02;63.64
9740;BME280;4909;42.680;26.324;2022-11-14T11:11:37;99529.97;;;17.05;63.48
9740;BME280;4909;42.680;26.324;2022-11-14T11:14:04;99524.88;;;17.16;63.34
9740;BME280;4909;42.680;26.324;2022-11-14T11:16:32;99520.31;;;17.18;63.54
9740;BME280;4909;42.680;26.324;2022-11-14T11:19:21;99518.47;;;17.19;62.67
9740;BME280;4909;42.680;26.324;2022-11-14T11:21:50;99516.63;;;17.19;62.72
9740;BME280;4909;42.680;26.324;2022-11-14T11:24:31;99513.88;;;17.21;62.64
9740;BME280;4909;42.680;26.324;2022-11-14T11:27:13;99512.75;;;17.25;62.54
9740;BME280;4909;42.680;26.324;2022-11-14T11:29:40;99511.66;;;17.13;62.53
9740;BME280;4909;42.680;26.324;2022-11-14T11:32:08;99516.56;;;17.05;62.87
9740;BME280;4909;42.680;26.324;2022-11-14T11:34:35;99481.34;;;16.80;62.77
9740;BME280;4909;42.680;26.324;2022-11-14T11:37:08;99502.56;;;17.00;62.77
9740;BME280;4909;42.680;26.324;2022-11-14T11:39:41;99504.56;;;16.97;62.37
9740;BME280;4909;42.680;26.324;2022-11-14T11:42:15;99505.94;;;17.04;61.87
9740;BME280;4909;42.680;26.324;2022-11-14T11:44:46;99485.63;;;16.84;62.41
9740;BME280;4909;42.680;26.324;2022-11-14T11:47:18;99493.47;;;16.71;64.21
9740;BME280;4909;42.680;26.324;2022-11-14T11:49:47;99475.75;;;16.69;62.68
9740;BME280;4909;42.680;26.324;2022-11-14T11:52:18;99488.97;;;16.72;63.25
9740;BME280;4909;42.680;26.324;2022-11-14T11:54:53;99484.63;;;16.53;64.23
9740;BME280;4909;42.680;26.324;2022-11-14T11:57:25;99487.94;;;16.59;64.43
9740;BME280;4909;42.680;26.324;2022-11-14T11:59:59;99487.69;;;16.79;64.12
9740;BME280;4909;42.680;26.324;2022-11-14T12:02:29;99477.72;;;16.81;63.77
9740;BME280;4909;42.680;26.324;2022-11-14T12:04:57;99490.81;;;16.87;63.83
9740;BME280;4909;42.680;26.324;2022-11-14T12:07:32;99486.81;;;16.78;63.29
9740;BME280;4909;42.680;26.324;2022-11-14T12:10:10;99485.88;;;16.79;63.92
9740;BME280;4909;42.680;26.324;2022-11-14T12:15:46;99469.00;;;16.77;63.58
9740;BME280;4909;42.680;26.324;2022-11-14T12:18:25;99485.09;;;16.93;63.20
9740;BME280;4909;42.680;26.324;2022-11-14T12:21:17;99477.53;;;17.00;62.84
9740;BME280;4909;42.680;26.324;2022-11-14T12:24:12;99476.19;;;16.92;62.90
9740;BME280;4909;42.680;26.324;2022-11-14T12:26:56;99469.53;;;16.84;62.68
9740;BME280;4909;42.680;26.324;2022-11-14T12:29:40;99472.28;;;16.82;64.06
9740;BME280;4909;42.680;26.324;2022-11-14T12:32:14;99474.53;;;17.06;63.13
9740;BME280;4909;42.680;26.324;2022-11-14T12:34:45;99466.47;;;17.06;62.28
9740;BME280;4909;42.680;26.324;2022-11-14T12:37:15;99469.50;;;17.00;62.23
9740;BME280;4909;42.680;26.324;2022-11-14T12:39:55;99460.84;;;16.94;62.46
9740;BME280;4909;42.680;26.324;2022-11-14T12:42:23;99462.84;;;16.91;63.03
9740;BME280;4909;42.680;26.324;2022-11-14T12:44:50;99456.88;;;17.02;63.38
9740;BME280;4909;42.680;26.324;2022-11-14T12:47:19;99454.81;;;17.07;63.14
9740;BME280;4909;42.680;26.324;2022-11-14T12:49:59;99453.59;;;16.97;64.50
9740;BME280;4909;42.680;26.324;2022-11-14T12:52:45;99460.50;;;17.01;63.46
9740;BME280;4909;42.680;26.324;2022-11-14T12:58:25;99456.09;;;17.00;63.08
9740;BME280;4909;42.680;26.324;2022-11-14T13:01:05;99450.22;;;16.93;63.11
9740;BME280;4909;42.680;26.324;2022-11-14T13:03:46;99450.66;;;17.01;62.63
9740;BME280;4909;42.680;26.324;2022-11-14T13:06:21;99452.66;;;16.82;63.59
9740;BME280;4909;42.680;26.324;2022-11-14T13:09:00;99446.09;;;16.87;63.24
9740;BME280;4909;42.680;26.324;2022-11-14T13:11:39;99444.72;;;16.32;65.03
9740;BME280;4909;42.680;26.324;2022-11-14T13:14:25;99448.00;;;16.37;65.22
9740;BME280;4909;42.680;26.324;2022-11-14T13:17:22;99442.75;;;16.35;65.05
9740;BME280;4909;42.680;26.324;2022-11-14T13:20:28;99453.22;;;16.40;65.23
9740;BME280;4909;42.680;26.324;2022-11-14T13:26:44;99437.91;;;16.42;65.32
9740;BME280;4909;42.680;26.324;2022-11-14T13:32:52;99435.31;;;16.25;65.85
9740;BME280;4909;42.680;26.324;2022-11-14T13:35:25;99438.41;;;16.33;65.76
9740;BME280;4909;42.680;26.324;2022-11-14T13:38:10;99434.38;;;16.26;66.30
9740;BME280;4909;42.680;26.324;2022-11-14T13:40:46;99433.84;;;16.35;66.24